createdAt,value
2019-05-29T00:00:41.485Z,96295.15
2019-05-29T00:01:49.487Z,96296.70
2019-05-29T00:02:56.698Z,96298.48
2019-05-29T00:04:06.065Z,96297.91
2019-05-29T00:05:14.338Z,96299.34
2019-05-29T00:06:22.362Z,96299.47
2019-05-29T00:07:29.562Z,96295.98
2019-05-29T00:08:37.548Z,96300.23
2019-05-29T00:09:45.438Z,96302.48
2019-05-29T00:10:53.424Z,96306.85
2019-05-29T00:12:00.649Z,96300.35
2019-05-29T00:13:08.716Z,96310.98
2019-05-29T00:14:26.603Z,96301.88
2019-05-29T00:15:25.642Z,96303.02
2019-05-29T00:16:32.944Z,96311.17
2019-05-29T00:17:40.964Z,96308.92
2019-05-29T00:18:48.219Z,96309.27
2019-05-29T00:19:56.211Z,96310.56
2019-05-29T00:21:03.489Z,96313.98
2019-05-29T00:22:12.382Z,96309.27
2019-05-29T00:23:19.718Z,96310.56
2019-05-29T00:24:27.741Z,96313.64
2019-05-29T00:25:35.127Z,96309.73
2019-05-29T00:26:43.180Z,96313.04
2019-05-29T00:27:50.479Z,96309.84
2019-05-29T00:28:58.533Z,96315.39
2019-05-29T00:30:06.992Z,96311.01
2019-05-29T00:31:15.097Z,96314.91
2019-05-29T00:32:22.396Z,96312.31
2019-05-29T00:33:30.402Z,96320.11
2019-05-29T00:34:37.688Z,96314.44
2019-05-29T00:35:45.738Z,96318.34
2019-05-29T00:36:53.047Z,96313.13
2019-05-29T00:38:01.030Z,96315.26
2019-05-29T00:39:09.246Z,96318.21
2019-05-29T00:40:18.391Z,96320.34
2019-05-29T00:41:25.708Z,96314.78
2019-05-29T00:42:33.728Z,96316.09
2019-05-29T00:43:40.998Z,96321.64
2019-05-29T00:44:49.006Z,96323.89
2019-05-29T00:45:56.199Z,96320.46
2019-05-29T00:47:04.200Z,96324.02
2019-05-29T00:48:11.674Z,96326.14
2019-05-29T00:49:19.726Z,96323.80
2019-05-29T00:50:26.947Z,96319.67
2019-05-29T00:51:36.019Z,96317.67
2019-05-29T00:52:43.243Z,96322.33
2019-05-29T00:53:51.367Z,96318.69
2019-05-29T00:55:00.184Z,96324.48
2019-05-29T00:56:10.428Z,96325.09
2019-05-29T00:57:18.948Z,96326.16
2019-05-29T00:58:27.066Z,96328.09
2019-05-29T00:59:34.297Z,96333.77
2019-05-29T01:00:42.283Z,96327.05
2019-05-29T01:01:49.495Z,96334.14
2019-05-29T01:02:57.489Z,96334.97
2019-05-29T01:04:04.740Z,96333.31
2019-05-29T01:05:13.856Z,96332.37
2019-05-29T01:06:21.231Z,96330.59
2019-05-29T01:07:29.230Z,96334.49
2019-05-29T01:08:36.431Z,96336.62
2019-05-29T01:09:44.647Z,96331.89
2019-05-29T01:10:51.875Z,96336.62
2019-05-29T01:11:59.879Z,96332.72
2019-05-29T01:13:07.103Z,96338.39
2019-05-29T01:14:15.205Z,96341.47
2019-05-29T01:15:23.000Z,96334.97
2019-05-29T01:16:31.032Z,96341.94
2019-05-29T01:17:38.264Z,96338.52
2019-05-29T01:18:46.291Z,96341.59
2019-05-29T01:19:53.497Z,96343.37
2019-05-29T01:21:01.499Z,96343.37
2019-05-29T01:22:08.734Z,96342.06
2019-05-29T01:23:16.728Z,96342.06
2019-05-29T01:24:23.980Z,96343.84
2019-05-29T01:25:31.974Z,96343.02
2019-05-29T01:26:39.184Z,96346.79
2019-05-29T01:27:47.178Z,96350.34
2019-05-29T01:28:54.414Z,96353.77
2019-05-29T01:30:02.421Z,96345.49
2019-05-29T01:31:11.024Z,96352.34
2019-05-29T01:32:19.538Z,96355.41
2019-05-29T01:33:26.812Z,96357.54
2019-05-29T01:34:34.839Z,96354.94
2019-05-29T01:35:43.033Z,96358.02
2019-05-29T01:36:51.041Z,96354.12
2019-05-29T01:37:58.235Z,96351.64
2019-05-29T01:39:07.530Z,96356.02
2019-05-29T01:40:21.160Z,96360.86
2019-05-29T01:41:24.608Z,96354.14
2019-05-29T01:42:31.849Z,96357.24
2019-05-29T01:43:39.844Z,96361.73
2019-05-29T01:44:47.067Z,96363.52
2019-05-29T01:45:55.105Z,96358.91
2019-05-29T01:47:02.344Z,96361.98
2019-05-29T01:48:10.351Z,96363.06
2019-05-29T01:49:17.928Z,96365.78
2019-05-29T01:50:25.987Z,96359.88
2019-05-29T01:51:33.242Z,96366.53
2019-05-29T01:52:41.258Z,96362.05
2019-05-29T01:53:48.472Z,96369.03
2019-05-29T01:54:56.481Z,96366.55
2019-05-29T01:56:03.704Z,96365.72
2019-05-29T01:57:11.725Z,96365.72
2019-05-29T01:58:20.446Z,96363.13
2019-05-29T01:59:28.537Z,96369.62
2019-05-29T02:00:35.743Z,96365.37
2019-05-29T02:01:43.738Z,96367.97
2019-05-29T02:02:50.962Z,96367.62
2019-05-29T02:03:58.980Z,96368.56
2019-05-29T02:05:06.974Z,96371.29
2019-05-29T02:06:15.841Z,96371.92
2019-05-29T02:07:24.035Z,96369.91
2019-05-29T02:08:32.158Z,96376.17
2019-05-29T02:09:39.489Z,96377.12
2019-05-29T02:10:47.496Z,96374.65
2019-05-29T02:11:54.702Z,96377.72
2019-05-29T02:13:03.747Z,96377.37
2019-05-29T02:14:10.990Z,96382.69
2019-05-29T02:15:25.942Z,96384.45
2019-05-29T02:16:28.303Z,96378.91
2019-05-29T02:17:36.294Z,96377.61
2019-05-29T02:18:43.505Z,96382.95
2019-05-29T02:19:51.542Z,96380.01
2019-05-29T02:20:58.746Z,96379.53
2019-05-29T02:22:06.757Z,96383.55
2019-05-29T02:23:13.956Z,96380.60
2019-05-29T02:24:23.162Z,96385.92
2019-05-29T02:25:30.517Z,96388.98
2019-05-29T02:26:38.495Z,96393.13
2019-05-29T02:27:45.710Z,96396.76
2019-05-29T02:28:53.696Z,96392.19
2019-05-29T02:30:00.938Z,96391.59
2019-05-29T02:31:10.101Z,96397.73
2019-05-29T02:32:17.779Z,96396.68
2019-05-29T02:33:28.357Z,96400.22
2019-05-29T02:34:35.721Z,96401.28
2019-05-29T02:35:43.837Z,96401.55
2019-05-29T02:36:51.057Z,96400.97
2019-05-29T02:37:59.152Z,96400.26
2019-05-29T02:39:08.274Z,96406.39
2019-05-29T02:40:16.276Z,96399.82
2019-05-29T02:41:25.676Z,96404.30
2019-05-29T02:42:33.190Z,96404.53
2019-05-29T02:43:41.494Z,96409.49
2019-05-29T02:44:49.528Z,96416.09
2019-05-29T02:45:56.741Z,96415.03
2019-05-29T02:47:04.762Z,96417.07
2019-05-29T02:48:11.975Z,96418.25
2019-05-29T02:49:21.435Z,96419.66
2019-05-29T02:50:30.714Z,96418.01
2019-05-29T02:51:38.664Z,96425.91
2019-05-29T02:52:45.915Z,96425.09
2019-05-29T02:53:53.938Z,96425.55
2019-05-29T02:55:01.158Z,96430.27
2019-05-29T02:56:09.178Z,96429.33
2019-05-29T02:57:16.423Z,96430.52
2019-05-29T02:58:25.846Z,96431.34
2019-05-29T02:59:33.333Z,96438.06
2019-05-29T03:00:56.612Z,96436.66
2019-05-29T03:02:03.792Z,96435.59
2019-05-29T03:03:11.829Z,96440.19
2019-05-29T03:04:19.055Z,96440.91
2019-05-29T03:05:28.086Z,96444.33
2019-05-29T03:06:35.439Z,96447.48
2019-05-29T03:07:43.428Z,96445.24
2019-05-29T03:08:51.258Z,96445.95
2019-05-29T03:09:59.726Z,96452.21
2019-05-29T03:11:07.087Z,96449.03
2019-05-29T03:12:15.079Z,96448.91
2019-05-29T03:13:23.170Z,96452.55
2019-05-29T03:14:32.309Z,96451.01
2019-05-29T03:15:41.380Z,96449.48
2019-05-29T03:16:49.403Z,96456.33
2019-05-29T03:17:56.644Z,96452.67
2019-05-29T03:19:04.656Z,96456.56
2019-05-29T03:20:12.047Z,96455.97
2019-05-29T03:21:20.038Z,96461.84
2019-05-29T03:22:28.715Z,96467.39
2019-05-29T03:23:36.966Z,96468.22
2019-05-29T03:24:44.190Z,96468.69
2019-05-29T03:25:52.180Z,96471.77
2019-05-29T03:26:59.393Z,96471.29
2019-05-29T03:28:08.159Z,96472.23
2019-05-29T03:29:15.420Z,96476.12
2019-05-29T03:30:23.432Z,96477.07
2019-05-29T03:31:37.741Z,96477.07
2019-05-29T03:32:47.320Z,96481.94
2019-05-29T03:33:50.762Z,96475.92
2019-05-29T03:34:58.964Z,96471.20
2019-05-29T03:36:06.213Z,96483.71
2019-05-29T03:37:14.282Z,96481.47
2019-05-29T03:38:21.526Z,96480.97
2019-05-29T03:39:30.268Z,96480.84
2019-05-29T03:40:38.683Z,96484.74
2019-05-29T03:41:46.831Z,96482.62
2019-05-29T03:42:54.068Z,96485.22
2019-05-29T03:44:02.089Z,96492.89
2019-05-29T03:45:09.813Z,96492.89
2019-05-29T03:46:30.024Z,96491.59
2019-05-29T03:47:27.088Z,96496.20
2019-05-29T03:48:38.357Z,96496.55
2019-05-29T03:49:45.330Z,96501.28
2019-05-29T03:50:53.335Z,96506.00
2019-05-29T03:52:00.545Z,96502.93
2019-05-29T03:53:08.579Z,96502.93
2019-05-29T03:54:15.805Z,96508.48
2019-05-29T03:55:23.796Z,96500.69
2019-05-29T03:56:32.541Z,96506.23
2019-05-29T03:57:40.696Z,96507.89
2019-05-29T03:58:47.921Z,96510.84
2019-05-29T03:59:55.940Z,96511.20
2019-05-29T04:01:03.151Z,96511.88
2019-05-29T04:02:11.315Z,96513.09
2019-05-29T04:03:18.517Z,96516.52
2019-05-29T04:04:26.980Z,96514.27
2019-05-29T04:05:35.496Z,96516.28
2019-05-29T04:06:47.256Z,96517.47
2019-05-29T04:07:52.996Z,96517.34
2019-05-29T04:09:00.993Z,96521.71
2019-05-29T04:10:11.700Z,96533.29
2019-05-29T04:11:19.703Z,96529.74
2019-05-29T04:12:27.138Z,96533.76
2019-05-29T04:13:36.173Z,96528.09
2019-05-29T04:14:44.668Z,96527.62
2019-05-29T04:15:54.264Z,96537.39
2019-05-29T04:17:02.388Z,96536.09
2019-05-29T04:18:10.709Z,96535.14
2019-05-29T04:19:18.105Z,96537.62
2019-05-29T04:20:27.522Z,96535.86
2019-05-29T04:21:38.431Z,96542.23
2019-05-29T04:22:47.772Z,96544.01
2019-05-29T04:23:58.015Z,96542.83
2019-05-29T04:25:07.747Z,96542.11
2019-05-29T04:26:18.204Z,96548.25
2019-05-29T04:27:31.956Z,96548.76
2019-05-29T04:28:39.625Z,96547.11
2019-05-29T04:29:49.626Z,96552.77
2019-05-29T04:30:56.854Z,96553.25
2019-05-29T04:32:04.863Z,96548.64
2019-05-29T04:33:12.064Z,96557.14
2019-05-29T04:34:20.080Z,96555.84
2019-05-29T04:35:28.289Z,96556.67
2019-05-29T04:36:36.953Z,96558.91
2019-05-29T04:37:45.787Z,96559.27
2019-05-29T04:38:53.757Z,96561.39
2019-05-29T04:40:00.964Z,96559.16
2019-05-29T04:41:08.982Z,96566.59
2019-05-29T04:42:16.197Z,96566.70
2019-05-29T04:43:24.189Z,96573.20
2019-05-29T04:44:33.096Z,96571.55
2019-05-29T04:45:41.073Z,96574.50
2019-05-29T04:46:48.306Z,96576.39
2019-05-29T04:47:56.339Z,96572.48
2019-05-29T04:49:03.546Z,96573.79
2019-05-29T04:50:12.150Z,96577.21
2019-05-29T04:51:19.381Z,96580.05
2019-05-29T04:52:28.968Z,96579.22
2019-05-29T04:53:37.783Z,96580.88
2019-05-29T04:54:47.475Z,96577.19
2019-05-29T04:55:54.775Z,96581.91
2019-05-29T04:57:02.769Z,96587.83
2019-05-29T04:58:09.995Z,96588.18
2019-05-29T04:59:18.014Z,96587.70
2019-05-29T05:00:25.274Z,96591.25
2019-05-29T05:01:33.264Z,96596.56
2019-05-29T05:02:40.475Z,96592.42
2019-05-29T05:03:48.467Z,96600.84
2019-05-29T05:04:56.010Z,96604.96
2019-05-29T05:06:04.046Z,96600.47
2019-05-29T05:07:11.252Z,96603.27
2019-05-29T05:08:19.243Z,96604.20
2019-05-29T05:09:26.471Z,96606.48
2019-05-29T05:10:40.960Z,96601.61
2019-05-29T05:11:48.527Z,96607.31
2019-05-29T05:12:56.597Z,96609.55
2019-05-29T05:14:03.894Z,96609.66
2019-05-29T05:15:12.485Z,96608.72
2019-05-29T05:16:19.727Z,96613.66
2019-05-29T05:17:27.748Z,96612.83
2019-05-29T05:18:35.845Z,96616.14
2019-05-29T05:19:43.959Z,96619.59
2019-05-29T05:20:51.313Z,96622.63
2019-05-29T05:21:59.383Z,96618.85
2019-05-29T05:23:07.554Z,96617.70
2019-05-29T05:24:15.577Z,96624.30
2019-05-29T05:25:22.818Z,96626.55
2019-05-29T05:26:32.055Z,96625.83
2019-05-29T05:27:40.666Z,96624.17
2019-05-29T05:28:48.850Z,96627.60
2019-05-29T05:29:56.071Z,96629.84
2019-05-29T05:31:04.062Z,96636.92
2019-05-29T05:32:11.288Z,96633.02
2019-05-29T05:33:19.296Z,96638.58
2019-05-29T05:34:26.529Z,96637.98
2019-05-29T05:35:34.679Z,96640.00
2019-05-29T05:36:41.923Z,96634.22
2019-05-29T05:37:49.959Z,96639.63
2019-05-29T05:38:57.196Z,96649.00
2019-05-29T05:40:05.483Z,96640.73
2019-05-29T05:41:12.682Z,96649.72
2019-05-29T05:42:20.706Z,96648.77
2019-05-29T05:43:27.965Z,96652.91
2019-05-29T05:44:37.031Z,96654.09
2019-05-29T05:45:44.381Z,96658.00
2019-05-29T05:46:52.397Z,96653.01
2019-05-29T05:48:00.707Z,96658.45
2019-05-29T05:49:09.628Z,96659.28
2019-05-29T05:50:17.436Z,96660.11
2019-05-29T05:51:25.427Z,96661.98
2019-05-29T05:52:33.762Z,96664.23
2019-05-29T05:53:41.933Z,96664.02
2019-05-29T05:54:50.288Z,96661.06
2019-05-29T05:55:58.296Z,96660.70
2019-05-29T05:57:05.537Z,96668.38
2019-05-29T05:58:13.602Z,96661.42
2019-05-29T05:59:20.905Z,96666.47
2019-05-29T06:00:35.791Z,96669.31
2019-05-29T06:01:43.269Z,96666.59
2019-05-29T06:02:52.268Z,96663.53
2019-05-29T06:03:59.582Z,96673.58
2019-05-29T06:05:08.727Z,96670.75
2019-05-29T06:06:16.007Z,96677.34
2019-05-29T06:07:24.131Z,96675.94
2019-05-29T06:08:32.011Z,96674.98
2019-05-29T06:09:40.458Z,96676.29
2019-05-29T06:10:50.610Z,96675.11
2019-05-29T06:11:57.537Z,96680.66
2019-05-29T06:13:04.851Z,96682.19
2019-05-29T06:14:12.875Z,96679.23
2019-05-29T06:15:20.103Z,96679.70
2019-05-29T06:16:28.110Z,96684.91
2019-05-29T06:17:36.543Z,96685.73
2019-05-29T06:18:44.750Z,96689.98
2019-05-29T06:19:51.993Z,96687.74
2019-05-29T06:21:00.016Z,96680.77
2019-05-29T06:22:07.226Z,96689.40
2019-05-29T06:23:15.252Z,96684.67
2019-05-29T06:24:22.476Z,96687.16
2019-05-29T06:25:33.608Z,96684.91
2019-05-29T06:26:41.062Z,96691.66
2019-05-29T06:27:49.174Z,96685.52
2019-05-29T06:28:56.394Z,96683.74
2019-05-29T06:30:04.417Z,96688.00
2019-05-29T06:31:11.657Z,96692.37
2019-05-29T06:32:19.649Z,96694.50
2019-05-29T06:33:26.864Z,96699.22
2019-05-29T06:34:35.686Z,96698.39
2019-05-29T06:35:43.789Z,96700.02
2019-05-29T06:36:52.069Z,96698.72
2019-05-29T06:37:59.313Z,96704.27
2019-05-29T06:39:09.253Z,96701.67
2019-05-29T06:40:38.339Z,96706.41
2019-05-29T06:41:47.394Z,96707.81
2019-05-29T06:42:54.606Z,96712.92
2019-05-29T06:44:02.629Z,96713.86
2019-05-29T06:45:10.283Z,96709.02
2019-05-29T06:46:18.409Z,96713.63
2019-05-29T06:47:25.645Z,96716.23
2019-05-29T06:48:50.266Z,96716.59
2019-05-29T06:49:42.706Z,96718.22
2019-05-29T06:50:50.949Z,96717.74
2019-05-29T06:51:58.665Z,96713.73
2019-05-29T06:53:06.772Z,96722.83
2019-05-29T06:54:14.005Z,96722.13
2019-05-29T06:55:22.019Z,96725.91
2019-05-29T06:56:29.233Z,96727.57
2019-05-29T06:57:38.099Z,96726.63
2019-05-29T06:58:45.438Z,96733.02
2019-05-29T06:59:53.454Z,96737.38
2019-05-29T07:01:00.676Z,96739.04
2019-05-29T07:02:09.763Z,96740.34
2019-05-29T07:03:17.019Z,96741.75
2019-05-29T07:04:25.026Z,96743.05
2019-05-29T07:05:32.236Z,96743.77
2019-05-29T07:06:40.737Z,96742.68
2019-05-29T07:07:48.052Z,96754.27
2019-05-29T07:08:56.417Z,96744.69
2019-05-29T07:10:03.898Z,96750.97
2019-05-29T07:11:11.890Z,96758.65
2019-05-29T07:12:19.130Z,96750.15
2019-05-29T07:13:27.130Z,96745.98
2019-05-29T07:14:34.346Z,96750.02
2019-05-29T07:15:42.907Z,96754.52
2019-05-29T07:16:55.904Z,96749.29
2019-05-29T07:18:00.134Z,96756.50
2019-05-29T07:20:17.336Z,96759.11
2019-05-29T07:21:24.558Z,96763.73
2019-05-29T07:22:32.640Z,96764.41
2019-05-29T07:23:41.276Z,96760.74
2019-05-29T07:24:49.341Z,96765.71
2019-05-29T07:25:56.615Z,96765.01
2019-05-29T07:27:04.614Z,96765.57
2019-05-29T07:28:12.056Z,96759.34
2019-05-29T07:29:20.124Z,96765.13
2019-05-29T07:30:27.551Z,96766.79
2019-05-29T07:31:36.811Z,96766.55
2019-05-29T07:32:50.101Z,96768.18
2019-05-29T07:33:54.008Z,96770.66
2019-05-29T07:35:03.519Z,96768.06
2019-05-29T07:36:12.014Z,96764.52
2019-05-29T07:37:19.225Z,96774.81
2019-05-29T07:38:27.233Z,96772.44
2019-05-29T07:39:34.442Z,96779.55
2019-05-29T07:40:44.633Z,96783.18
2019-05-29T07:41:51.372Z,96779.04
2019-05-29T07:42:59.361Z,96787.44
2019-05-29T07:44:06.572Z,96793.70
2019-05-29T07:45:16.156Z,96791.66
2019-05-29T07:46:23.410Z,96792.73
2019-05-29T07:47:31.430Z,96795.22
2019-05-29T07:48:38.641Z,96794.63
2019-05-29T07:49:48.938Z,96794.03
2019-05-29T07:51:06.562Z,96799.12
2019-05-29T07:52:05.649Z,96799.47
2019-05-29T07:53:12.855Z,96793.28
2019-05-29T07:54:20.847Z,96794.47
2019-05-29T07:55:28.098Z,96798.61
2019-05-29T07:56:36.067Z,96797.55
2019-05-29T07:57:44.802Z,96805.59
2019-05-29T07:59:02.748Z,96799.64
2019-05-29T08:00:02.047Z,96802.47
2019-05-29T08:01:13.675Z,96802.23
2019-05-29T08:02:19.470Z,96804.24
2019-05-29T08:03:28.262Z,96801.64
2019-05-29T08:04:35.495Z,96802.34
2019-05-29T08:05:47.722Z,96804.95
2019-05-29T08:06:54.652Z,96809.69
2019-05-29T08:08:02.484Z,96807.56
2019-05-29T08:09:10.026Z,96808.15
2019-05-29T08:10:18.698Z,96808.50
2019-05-29T08:11:25.923Z,96812.29
2019-05-29T08:12:34.064Z,96812.64
2019-05-29T08:13:41.575Z,96813.80
2019-05-29T08:14:50.210Z,96811.55
2019-05-29T08:16:02.948Z,96811.42
2019-05-29T08:17:08.564Z,96815.33
2019-05-29T08:18:15.889Z,96810.95
2019-05-29T08:19:23.822Z,96810.00
2019-05-29T08:20:31.061Z,96814.14
2019-05-29T08:21:40.814Z,96808.34
2019-05-29T08:22:48.535Z,96816.03
2019-05-29T08:23:56.761Z,96815.08
2019-05-29T08:25:04.020Z,96822.07
2019-05-29T08:26:12.082Z,96823.22
2019-05-29T08:27:19.307Z,96821.32
2019-05-29T08:28:27.318Z,96817.77
2019-05-29T08:29:34.547Z,96824.52
2019-05-29T08:30:48.311Z,96827.47
2019-05-29T08:31:51.473Z,96825.13
2019-05-29T08:32:59.482Z,96824.53
2019-05-29T08:34:06.700Z,96829.34
2019-05-29T08:35:14.884Z,96825.67
2019-05-29T08:36:22.115Z,96828.73
2019-05-29T08:37:30.117Z,96829.77
2019-05-29T08:38:37.344Z,96828.69
2019-05-29T08:39:45.456Z,96827.02
2019-05-29T08:40:52.714Z,96831.98
2019-05-29T08:42:22.071Z,96832.34
2019-05-29T08:43:10.852Z,96827.80
2019-05-29T08:44:18.874Z,96830.41
2019-05-29T08:45:26.099Z,96830.16
2019-05-29T08:46:34.107Z,96832.64
2019-05-29T08:47:41.530Z,96832.88
2019-05-29T08:48:51.821Z,96841.88
2019-05-29T08:50:16.833Z,96833.45
2019-05-29T08:51:09.193Z,96836.86
2019-05-29T08:52:16.415Z,96839.47
2019-05-29T08:53:24.437Z,96834.60
2019-05-29T08:54:31.677Z,96840.52
2019-05-29T08:55:39.685Z,96843.95
2019-05-29T08:56:48.349Z,96848.09
2019-05-29T08:57:56.492Z,96848.33
2019-05-29T08:59:03.733Z,96847.73
2019-05-29T09:00:13.572Z,96854.44
2019-05-29T09:01:20.787Z,96853.02
2019-05-29T09:02:28.771Z,96853.36
2019-05-29T09:03:36.047Z,96850.16
2019-05-29T09:04:44.696Z,96857.38
2019-05-29T09:06:07.907Z,96856.30
2019-05-29T09:07:01.673Z,96856.18
2019-05-29T09:08:08.877Z,96858.63
2019-05-29T09:09:16.883Z,96856.38
2019-05-29T09:10:24.239Z,96858.38
2019-05-29T09:11:32.249Z,96862.17
2019-05-29T09:12:39.474Z,96858.48
2019-05-29T09:13:48.575Z,96861.09
2019-05-29T09:14:55.801Z,96860.97
2019-05-29T09:16:03.810Z,96864.75
2019-05-29T09:17:11.973Z,96862.50
2019-05-29T09:18:21.521Z,96864.16
2019-05-29T09:19:29.066Z,96870.17
2019-05-29T09:21:00.808Z,96869.69
2019-05-29T09:21:45.968Z,96866.13
2019-05-29T09:22:53.962Z,96874.19
2019-05-29T09:24:01.185Z,96876.06
2019-05-29T09:25:10.619Z,96876.77
2019-05-29T09:26:22.399Z,96873.42
2019-05-29T09:27:27.679Z,96881.13
2019-05-29T09:28:35.009Z,96873.66
2019-05-29T09:29:43.035Z,96869.48
2019-05-29T09:30:50.422Z,96875.76
2019-05-29T09:31:58.431Z,96870.28
2019-05-29T09:33:05.655Z,96870.34
2019-05-29T09:34:15.118Z,96878.75
2019-05-29T09:35:24.920Z,96878.84
2019-05-29T09:36:33.080Z,96882.95
2019-05-29T09:37:40.308Z,96888.40
2019-05-29T09:38:48.456Z,96885.66
2019-05-29T09:39:55.715Z,96889.33
2019-05-29T09:41:03.720Z,96893.59
2019-05-29T09:42:10.982Z,96896.91
2019-05-29T09:43:20.030Z,96894.48
2019-05-29T09:44:37.980Z,96902.66
2019-05-29T09:45:37.414Z,96900.28
2019-05-29T09:46:44.682Z,96894.58
2019-05-29T09:47:52.820Z,96901.45
2019-05-29T09:49:01.611Z,96902.77
2019-05-29T09:50:11.911Z,96900.15
2019-05-29T09:51:21.430Z,96909.77
2019-05-29T09:52:30.865Z,96909.77
2019-05-29T09:53:37.745Z,96907.98
2019-05-29T09:54:45.887Z,96911.91
2019-05-29T09:55:54.176Z,96915.82
2019-05-29T09:57:02.935Z,96908.20
2019-05-29T09:58:10.132Z,96907.86
2019-05-29T09:59:18.108Z,96910.81
2019-05-29T10:00:25.548Z,96912.60
2019-05-29T10:01:33.624Z,96906.42
2019-05-29T10:02:40.929Z,96909.03
2019-05-29T10:03:48.935Z,96907.59
2019-05-29T10:04:57.492Z,96913.71
2019-05-29T10:06:09.401Z,96911.10
2019-05-29T10:07:15.081Z,96914.89
2019-05-29T10:08:23.088Z,96911.80
2019-05-29T10:09:30.316Z,96913.80
2019-05-29T10:10:38.336Z,96913.55
2019-05-29T10:11:45.531Z,96916.22
2019-05-29T10:12:54.768Z,96908.34
2019-05-29T10:14:02.864Z,96907.80
2019-05-29T10:15:14.280Z,96915.72
2019-05-29T10:16:21.546Z,96918.33
2019-05-29T10:17:30.635Z,96914.63
2019-05-29T10:18:37.873Z,96914.67
2019-05-29T10:19:45.854Z,96919.03
2019-05-29T10:20:53.080Z,96920.08
2019-05-29T10:22:02.571Z,96918.34
2019-05-29T10:23:10.022Z,96927.10
2019-05-29T10:24:17.994Z,96919.47
2019-05-29T10:25:25.655Z,96929.50
2019-05-29T10:26:33.661Z,96921.74
2019-05-29T10:27:40.889Z,96924.44
2019-05-29T10:29:01.652Z,96928.41
2019-05-29T10:29:57.770Z,96929.80
2019-05-29T10:31:06.206Z,96925.61
2019-05-29T10:32:14.562Z,96936.47
2019-05-29T10:33:22.582Z,96939.30
2019-05-29T10:34:29.779Z,96938.91
2019-05-29T10:35:37.800Z,96941.25
2019-05-29T10:36:48.432Z,96934.89
2019-05-29T10:37:54.773Z,96933.45
2019-05-29T10:39:02.046Z,96936.75
2019-05-29T10:40:11.822Z,96938.28
2019-05-29T10:41:19.148Z,96938.48
2019-05-29T10:42:27.129Z,96935.39
2019-05-29T10:43:35.076Z,96938.53
2019-05-29T10:44:43.320Z,96942.70
2019-05-29T10:45:52.077Z,96936.72
2019-05-29T10:47:00.219Z,96933.48
2019-05-29T10:48:07.549Z,96935.80
2019-05-29T10:49:15.572Z,96936.14
2019-05-29T10:50:22.915Z,96932.91
2019-05-29T10:51:30.923Z,96932.77
2019-05-29T10:52:38.165Z,96936.08
2019-05-29T10:53:47.176Z,96931.05
2019-05-29T10:54:55.125Z,96931.27
2019-05-29T10:56:03.128Z,96930.61
2019-05-29T10:57:10.374Z,96931.09
2019-05-29T10:58:18.347Z,96938.12
2019-05-29T10:59:26.635Z,96934.54
2019-05-29T11:00:38.636Z,96942.05
2019-05-29T11:01:45.131Z,96941.73
2019-05-29T11:02:55.381Z,96945.14
2019-05-29T11:04:02.278Z,96937.98
2019-05-29T11:05:10.988Z,96950.45
2019-05-29T11:06:19.177Z,96942.60
2019-05-29T11:07:27.194Z,96947.49
2019-05-29T11:08:34.409Z,96949.14
2019-05-29T11:09:44.927Z,96958.80
2019-05-29T11:10:52.096Z,96957.34
2019-05-29T11:12:00.259Z,96956.52
2019-05-29T11:13:07.526Z,96961.62
2019-05-29T11:14:15.577Z,96960.17
2019-05-29T11:15:22.972Z,96946.25
2019-05-29T11:16:31.155Z,96952.18
2019-05-29T11:17:38.379Z,96953.70
2019-05-29T11:18:47.500Z,96953.53
2019-05-29T11:19:55.638Z,96949.81
2019-05-29T11:21:03.714Z,96956.36
2019-05-29T11:22:25.657Z,96959.32
2019-05-29T11:23:20.630Z,96963.59
2019-05-29T11:24:27.872Z,96960.49
2019-05-29T11:25:35.847Z,96957.88
2019-05-29T11:26:43.058Z,96960.36
2019-05-29T11:27:53.012Z,96954.36
2019-05-29T11:29:00.008Z,96956.67
2019-05-29T11:30:10.022Z,96958.53
2019-05-29T11:31:17.264Z,96960.40
2019-05-29T11:32:25.296Z,96956.19
2019-05-29T11:33:32.521Z,96952.30
2019-05-29T11:34:40.556Z,96958.43
2019-05-29T11:35:58.290Z,96966.53
2019-05-29T11:36:58.347Z,96968.25
2019-05-29T11:38:06.737Z,96960.00
2019-05-29T11:39:15.152Z,96957.41
2019-05-29T11:40:22.464Z,96963.06
2019-05-29T11:41:30.529Z,96961.64
2019-05-29T11:42:37.772Z,96959.77
2019-05-29T11:43:45.779Z,96963.14
2019-05-29T11:44:53.455Z,96968.75
2019-05-29T11:46:02.100Z,96964.39
2019-05-29T11:47:09.871Z,96970.15
2019-05-29T11:48:17.898Z,96981.52
2019-05-29T11:49:25.194Z,96969.92
2019-05-29T11:50:33.212Z,96974.73
2019-05-29T11:51:44.084Z,96970.48
2019-05-29T11:52:50.367Z,96969.58
2019-05-29T11:53:57.711Z,96967.48
2019-05-29T11:55:08.170Z,96978.63
2019-05-29T11:56:15.313Z,96970.82
2019-05-29T11:57:23.319Z,96971.84
2019-05-29T11:58:31.693Z,96971.24
2019-05-29T11:59:39.888Z,96982.10
2019-05-29T12:00:47.086Z,96980.84
2019-05-29T12:01:56.873Z,96976.13
2019-05-29T12:03:04.236Z,96980.28
2019-05-29T12:04:25.413Z,96977.86
2019-05-29T12:05:22.346Z,96980.53
2019-05-29T12:06:30.330Z,96979.41
2019-05-29T12:07:37.552Z,96981.69
2019-05-29T12:08:45.541Z,96981.20
2019-05-29T12:09:53.303Z,96983.66
2019-05-29T12:11:01.592Z,96984.34
2019-05-29T12:12:08.953Z,96982.87
2019-05-29T12:13:16.952Z,96982.25
2019-05-29T12:14:24.361Z,96983.90
2019-05-29T12:15:32.336Z,96984.09
2019-05-29T12:16:39.544Z,96972.62
2019-05-29T12:17:47.648Z,96974.27
2019-05-29T12:18:55.657Z,96976.57
2019-05-29T12:20:10.402Z,96974.14
2019-05-29T12:21:12.679Z,96976.62
2019-05-29T12:22:20.692Z,96973.36
2019-05-29T12:23:27.913Z,96976.66
2019-05-29T12:24:35.920Z,96972.88
2019-05-29T12:25:43.145Z,96979.30
2019-05-29T12:26:52.311Z,96977.02
2019-05-29T12:28:01.203Z,96974.87
2019-05-29T12:29:11.896Z,96984.06
2019-05-29T12:30:20.209Z,96982.08
2019-05-29T12:31:28.219Z,96991.59
2019-05-29T12:32:35.532Z,96985.80
2019-05-29T12:33:43.508Z,96989.06
2019-05-29T12:34:53.635Z,96990.04
2019-05-29T12:36:01.255Z,96986.25
2019-05-29T12:37:08.645Z,96991.64
2019-05-29T12:38:16.612Z,96990.31
2019-05-29T12:39:23.826Z,96989.64
2019-05-29T12:40:31.834Z,96998.29
2019-05-29T12:41:40.031Z,97002.86
2019-05-29T12:42:48.055Z,96996.62
2019-05-29T12:43:55.334Z,96999.05
2019-05-29T12:45:04.252Z,96997.20
2019-05-29T12:46:11.611Z,96991.13
2019-05-29T12:47:19.627Z,96994.38
2019-05-29T12:48:26.838Z,96993.38
2019-05-29T12:49:34.921Z,96991.73
2019-05-29T12:50:42.219Z,96991.39
2019-05-29T12:51:51.278Z,96999.89
2019-05-29T12:52:59.703Z,96994.30
2019-05-29T12:54:07.905Z,97001.35
2019-05-29T12:55:16.063Z,96996.25
2019-05-29T12:56:24.050Z,96997.08
2019-05-29T12:57:31.274Z,96996.10
2019-05-29T12:58:39.266Z,96998.58
2019-05-29T12:59:46.493Z,96998.09
2019-05-29T13:00:54.969Z,96997.95
2019-05-29T13:02:04.745Z,96996.01
2019-05-29T13:03:12.888Z,97000.77
2019-05-29T13:04:20.109Z,97000.94
2019-05-29T13:05:28.251Z,96999.63
2019-05-29T13:06:35.446Z,97002.59
2019-05-29T13:07:43.437Z,97000.80
2019-05-29T13:08:51.713Z,97001.13
2019-05-29T13:10:00.483Z,97001.33
2019-05-29T13:11:07.829Z,97002.50
2019-05-29T13:12:15.866Z,96999.59
2019-05-29T13:13:23.110Z,97002.72
2019-05-29T13:14:31.135Z,97004.22
2019-05-29T13:15:38.344Z,97006.06
2019-05-29T13:16:46.346Z,97005.44
2019-05-29T13:17:57.189Z,96999.03
2019-05-29T13:19:03.597Z,97000.69
2019-05-29T13:20:21.129Z,97001.86
2019-05-29T13:21:22.119Z,96997.09